sensor_id;sensor_type;location;lat;lon;timestamp;pressure;altitude;pressure_sealevel;temperature;humidity
10700;BME280;5401;41.986;21.452;2023-02-10T00:01:22;100279.47;;;-1.22;52.35
10700;BME280;5401;41.986;21.452;2023-02-10T00:03:50;100275.03;;;-1.21;52.49
10700;BME280;5401;41.986;21.452;2023-02-10T00:06:19;100281.16;;;-1.21;52.41
10700;BME280;5401;41.986;21.452;2023-02-10T00:08:49;100283.13;;;-1.24;52.25
10700;BME280;5401;41.986;21.452;2023-02-10T00:11:17;100289.22;;;-1.24;52.50
10700;BME280;5401;41.986;21.452;2023-02-10T00:13:45;100277.03;;;-1.25;52.49
10700;BME280;5401;41.986;21.452;2023-02-10T00:16:15;100272.69;;;-1.26;52.53
10700;BME280;5401;41.986;21.452;2023-02-10T00:18:43;100282.56;;;-1.15;52.82
10700;BME280;5401;41.986;21.452;2023-02-10T00:21:13;100292.97;;;-1.14;52.41
10700;BME280;5401;41.986;21.452;2023-02-10T00:23:43;100271.50;;;-1.20;52.86
10700;BME280;5401;41.986;21.452;2023-02-10T00:26:12;100280.13;;;-1.18;52.37
10700;BME280;5401;41.986;21.452;2023-02-10T00:28:40;100286.13;;;-1.16;52.57
10700;BME280;5401;41.986;21.452;2023-02-10T00:31:09;100291.09;;;-1.12;52.48
10700;BME280;5401;41.986;21.452;2023-02-10T00:33:39;100297.47;;;-1.16;52.21
10700;BME280;5401;41.986;21.452;2023-02-10T00:36:08;100279.09;;;-1.30;52.52
10700;BME280;5401;41.986;21.452;2023-02-10T00:38:38;100292.59;;;-1.22;52.70
10700;BME280;5401;41.986;21.452;2023-02-10T00:41:07;100275.31;;;-1.40;52.67
10700;BME280;5401;41.986;21.452;2023-02-10T00:43:35;100281.81;;;-1.31;52.90
10700;BME280;5401;41.986;21.452;2023-02-10T00:46:03;100278.25;;;-1.30;52.75
10700;BME280;5401;41.986;21.452;2023-02-10T00:48:30;100283.97;;;-1.24;53.02
10700;BME280;5401;41.986;21.452;2023-02-10T00:51:00;100284.91;;;-1.25;52.71
10700;BME280;5401;41.986;21.452;2023-02-10T00:53:27;100283.59;;;-1.18;52.66
10700;BME280;5401;41.986;21.452;2023-02-10T00:55:55;100276.09;;;-1.24;52.41
10700;BME280;5401;41.986;21.452;2023-02-10T00:58:23;100278.78;;;-1.25;52.66
10700;BME280;5401;41.986;21.452;2023-02-10T01:00:52;100287.53;;;-1.25;52.52
10700;BME280;5401;41.986;21.452;2023-02-10T01:03:20;100235.81;;;-1.52;52.81
10700;BME280;5401;41.986;21.452;2023-02-10T01:05:48;100265.94;;;-1.30;52.73
10700;BME280;5401;41.986;21.452;2023-02-10T01:08:17;100273.00;;;-1.30;52.97
10700;BME280;5401;41.986;21.452;2023-02-10T01:10:45;100262.94;;;-1.38;52.73
10700;BME280;5401;41.986;21.452;2023-02-10T01:13:14;100261.19;;;-1.37;52.78
10700;BME280;5401;41.986;21.452;2023-02-10T01:15:43;100278.44;;;-1.33;52.79
10700;BME280;5401;41.986;21.452;2023-02-10T01:18:11;100270.94;;;-1.39;53.02
10700;BME280;5401;41.986;21.452;2023-02-10T01:20:39;100258.25;;;-1.46;53.11
10700;BME280;5401;41.986;21.452;2023-02-10T01:23:07;100270.56;;;-1.47;53.04
10700;BME280;5401;41.986;21.452;2023-02-10T01:25:37;100264.53;;;-1.49;53.07
10700;BME280;5401;41.986;21.452;2023-02-10T01:28:05;100272.41;;;-1.49;53.18
10700;BME280;5401;41.986;21.452;2023-02-10T01:30:33;100276.63;;;-1.46;53.42
10700;BME280;5401;41.986;21.452;2023-02-10T01:33:01;100254.50;;;-1.56;53.17
10700;BME280;5401;41.986;21.452;2023-02-10T01:35:29;100270.44;;;-1.45;53.39
10700;BME280;5401;41.986;21.452;2023-02-10T01:37:56;100270.63;;;-1.48;53.22
10700;BME280;5401;41.986;21.452;2023-02-10T01:40:25;100275.97;;;-1.50;53.47
10700;BME280;5401;41.986;21.452;2023-02-10T01:42:54;100249.88;;;-1.67;53.20
10700;BME280;5401;41.986;21.452;2023-02-10T01:45:25;100269.97;;;-1.52;53.25
10700;BME280;5401;41.986;21.452;2023-02-10T01:47:56;100274.28;;;-1.51;53.63
10700;BME280;5401;41.986;21.452;2023-02-10T01:50:27;100268.97;;;-1.49;53.72
10700;BME280;5401;41.986;21.452;2023-02-10T01:52:57;100271.00;;;-1.54;53.56
10700;BME280;5401;41.986;21.452;2023-02-10T01:55:27;100269.88;;;-1.50;53.62
10700;BME280;5401;41.986;21.452;2023-02-10T01:57:57;100273.47;;;-1.51;53.57
10700;BME280;5401;41.986;21.452;2023-02-10T02:00:25;100266.50;;;-1.52;53.55
10700;BME280;5401;41.986;21.452;2023-02-10T02:02:54;100267.34;;;-1.52;53.79
10700;BME280;5401;41.986;21.452;2023-02-10T02:08:29;100217.13;;;-1.89;53.52
10700;BME280;5401;41.986;21.452;2023-02-10T02:11:03;100265.56;;;-1.65;53.67
10700;BME280;5401;41.986;21.452;2023-02-10T02:13:50;100257.84;;;-1.68;53.33
10700;BME280;5401;41.986;21.452;2023-02-10T02:16:30;100270.81;;;-1.65;53.44
10700;BME280;5401;41.986;21.452;2023-02-10T02:19:09;100263.28;;;-1.71;53.66
10700;BME280;5401;41.986;21.452;2023-02-10T02:24:56;100268.34;;;-1.68;53.75
10700;BME280;5401;41.986;21.452;2023-02-10T02:27:49;100259.25;;;-1.77;53.82
10700;BME280;5401;41.986;21.452;2023-02-10T02:30:46;100260.34;;;-1.80;53.65
10700;BME280;5401;41.986;21.452;2023-02-10T02:33:24;100258.47;;;-1.78;53.68
10700;BME280;5401;41.986;21.452;2023-02-10T02:35:59;100255.03;;;-1.79;53.96
10700;BME280;5401;41.986;21.452;2023-02-10T02:38:29;100258.56;;;-1.80;53.63
10700;BME280;5401;41.986;21.452;2023-02-10T02:40:56;100252.47;;;-1.80;53.46
10700;BME280;5401;41.986;21.452;2023-02-10T02:43:24;100262.97;;;-1.80;53.66
10700;BME280;5401;41.986;21.452;2023-02-10T02:45:56;100266.28;;;-1.77;53.98
10700;BME280;5401;41.986;21.452;2023-02-10T02:48:37;100261.56;;;-1.86;54.16
10700;BME280;5401;41.986;21.452;2023-02-10T02:51:13;100260.06;;;-1.90;54.17
10700;BME280;5401;41.986;21.452;2023-02-10T02:53:48;100264.28;;;-1.87;53.84
10700;BME280;5401;41.986;21.452;2023-02-10T02:56:27;100259.88;;;-1.87;53.97
10700;BME280;5401;41.986;21.452;2023-02-10T02:58:59;100249.66;;;-1.91;53.58
10700;BME280;5401;41.986;21.452;2023-02-10T03:01:34;100272.91;;;-1.85;54.27
10700;BME280;5401;41.986;21.452;2023-02-10T03:04:05;100275.53;;;-1.85;54.03
10700;BME280;5401;41.986;21.452;2023-02-10T03:06:34;100269.53;;;-1.87;54.01
10700;BME280;5401;41.986;21.452;2023-02-10T03:09:02;100256.28;;;-2.00;53.84
10700;BME280;5401;41.986;21.452;2023-02-10T03:11:30;100266.31;;;-1.92;53.66
10700;BME280;5401;41.986;21.452;2023-02-10T03:13:57;100271.50;;;-1.91;54.09
10700;BME280;5401;41.986;21.452;2023-02-10T03:16:25;100266.31;;;-1.92;54.31
10700;BME280;5401;41.986;21.452;2023-02-10T03:18:52;100269.13;;;-1.95;53.68
10700;BME280;5401;41.986;21.452;2023-02-10T03:21:21;100265.09;;;-2.01;54.21
10700;BME280;5401;41.986;21.452;2023-02-10T03:23:48;100262.88;;;-2.08;54.21
10700;BME280;5401;41.986;21.452;2023-02-10T03:26:16;100261.50;;;-2.13;54.34
10700;BME280;5401;41.986;21.452;2023-02-10T03:28:44;100270.28;;;-2.14;54.21
10700;BME280;5401;41.986;21.452;2023-02-10T03:31:11;100261.25;;;-2.24;54.44
10700;BME280;5401;41.986;21.452;2023-02-10T03:33:38;100272.00;;;-2.29;54.32
10700;BME280;5401;41.986;21.452;2023-02-10T03:36:06;100269.47;;;-2.30;54.18
10700;BME280;5401;41.986;21.452;2023-02-10T03:38:36;100264.66;;;-2.38;54.37
10700;BME280;5401;41.986;21.452;2023-02-10T03:41:03;100261.56;;;-2.44;54.78
10700;BME280;5401;41.986;21.452;2023-02-10T03:43:31;100243.53;;;-2.65;54.39
10700;BME280;5401;41.986;21.452;2023-02-10T03:45:59;100270.19;;;-2.57;54.80
10700;BME280;5401;41.986;21.452;2023-02-10T03:48:27;100266.53;;;-2.55;54.66
10700;BME280;5401;41.986;21.452;2023-02-10T03:50:57;100264.78;;;-2.54;54.43
10700;BME280;5401;41.986;21.452;2023-02-10T03:53:24;100261.97;;;-2.51;54.78
10700;BME280;5401;41.986;21.452;2023-02-10T03:55:54;100220.16;;;-2.68;54.78
10700;BME280;5401;41.986;21.452;2023-02-10T03:58:22;100252.78;;;-2.58;54.86
10700;BME280;5401;41.986;21.452;2023-02-10T04:00:50;100259.03;;;-2.76;54.90
10700;BME280;5401;41.986;21.452;2023-02-10T04:03:17;100259.84;;;-2.91;55.20
10700;BME280;5401;41.986;21.452;2023-02-10T04:05:45;100254.13;;;-2.97;55.06
10700;BME280;5401;41.986;21.452;2023-02-10T04:08:13;100263.00;;;-3.00;55.57
10700;BME280;5401;41.986;21.452;2023-02-10T04:10:40;100258.69;;;-3.01;55.39
10700;BME280;5401;41.986;21.452;2023-02-10T04:13:09;100264.44;;;-2.94;55.13
10700;BME280;5401;41.986;21.452;2023-02-10T04:15:37;100272.03;;;-2.90;55.39
10700;BME280;5401;41.986;21.452;2023-02-10T04:18:04;100267.56;;;-2.88;55.07
10700;BME280;5401;41.986;21.452;2023-02-10T04:20:32;100265.72;;;-2.86;55.37
10700;BME280;5401;41.986;21.452;2023-02-10T04:22:59;100262.13;;;-2.85;55.23
10700;BME280;5401;41.986;21.452;2023-02-10T04:25:27;100270.53;;;-2.79;54.97
10700;BME280;5401;41.986;21.452;2023-02-10T04:27:54;100257.50;;;-2.80;55.07
10700;BME280;5401;41.986;21.452;2023-02-10T04:30:23;100255.91;;;-2.83;55.57
10700;BME280;5401;41.986;21.452;2023-02-10T04:32:51;100262.75;;;-2.80;55.19
10700;BME280;5401;41.986;21.452;2023-02-10T04:35:18;100261.66;;;-2.76;55.17
10700;BME280;5401;41.986;21.452;2023-02-10T04:37:46;100262.50;;;-2.76;55.60
10700;BME280;5401;41.986;21.452;2023-02-10T04:40:13;100268.41;;;-2.72;55.05
10700;BME280;5401;41.986;21.452;2023-02-10T04:42:41;100269.53;;;-2.76;55.03
10700;BME280;5401;41.986;21.452;2023-02-10T04:45:08;100270.44;;;-2.77;55.15
10700;BME280;5401;41.986;21.452;2023-02-10T04:47:37;100270.44;;;-2.77;54.87
10700;BME280;5401;41.986;21.452;2023-02-10T04:50:05;100277.72;;;-2.82;55.62
10700;BME280;5401;41.986;21.452;2023-02-10T04:52:33;100275.84;;;-2.80;54.93
10700;BME280;5401;41.986;21.452;2023-02-10T04:55:00;100276.94;;;-2.84;55.70
10700;BME280;5401;41.986;21.452;2023-02-10T04:57:28;100275.25;;;-2.85;55.58
10700;BME280;5401;41.986;21.452;2023-02-10T04:59:55;100265.03;;;-2.89;55.33
10700;BME280;5401;41.986;21.452;2023-02-10T05:02:23;100281.56;;;-2.89;55.04
10700;BME280;5401;41.986;21.452;2023-02-10T05:04:52;100279.72;;;-2.87;54.76
10700;BME280;5401;41.986;21.452;2023-02-10T05:07:19;100281.44;;;-2.86;55.03
10700;BME280;5401;41.986;21.452;2023-02-10T05:09:47;100281.50;;;-2.87;55.16
10700;BME280;5401;41.986;21.452;2023-02-10T05:12:15;100283.34;;;-2.89;54.91
10700;BME280;5401;41.986;21.452;2023-02-10T05:14:42;100281.75;;;-2.92;55.80
10700;BME280;5401;41.986;21.452;2023-02-10T05:17:10;100279.97;;;-2.91;54.98
10700;BME280;5401;41.986;21.452;2023-02-10T05:19:37;100281.56;;;-2.89;55.40
10700;BME280;5401;41.986;21.452;2023-02-10T05:22:06;100289.38;;;-2.87;55.36
10700;BME280;5401;41.986;21.452;2023-02-10T05:24:34;100292.06;;;-2.89;55.17
10700;BME280;5401;41.986;21.452;2023-02-10T05:27:01;100303.22;;;-2.85;55.52
10700;BME280;5401;41.986;21.452;2023-02-10T05:29:29;100291.97;;;-2.87;55.08
10700;BME280;5401;41.986;21.452;2023-02-10T05:31:58;100300.03;;;-2.90;55.67
10700;BME280;5401;41.986;21.452;2023-02-10T05:34:25;100300.78;;;-2.88;55.73
10700;BME280;5401;41.986;21.452;2023-02-10T05:36:53;100298.25;;;-2.90;55.48
10700;BME280;5401;41.986;21.452;2023-02-10T05:39:22;100291.22;;;-2.89;55.20
10700;BME280;5401;41.986;21.452;2023-02-10T05:41:56;100291.16;;;-2.88;55.53
10700;BME280;5401;41.986;21.452;2023-02-10T05:44:26;100297.06;;;-2.84;54.93
10700;BME280;5401;41.986;21.452;2023-02-10T05:46:53;100301.41;;;-2.68;55.46
10700;BME280;5401;41.986;21.452;2023-02-10T05:49:21;100278.22;;;-2.60;55.18
10700;BME280;5401;41.986;21.452;2023-02-10T05:51:48;100308.56;;;-2.26;54.76
10700;BME280;5401;41.986;21.452;2023-02-10T05:54:16;100307.59;;;-2.10;55.01
10700;BME280;5401;41.986;21.452;2023-02-10T05:56:45;100304.69;;;-1.90;54.17
10700;BME280;5401;41.986;21.452;2023-02-10T05:59:12;100310.81;;;-1.62;54.28
10700;BME280;5401;41.986;21.452;2023-02-10T06:01:40;100312.53;;;-1.61;54.23
10700;BME280;5401;41.986;21.452;2023-02-10T06:04:08;100323.78;;;-1.59;53.76
10700;BME280;5401;41.986;21.452;2023-02-10T06:06:35;100322.88;;;-1.44;54.09
10700;BME280;5401;41.986;21.452;2023-02-10T06:09:03;100330.13;;;-1.34;53.60
10700;BME280;5401;41.986;21.452;2023-02-10T06:11:31;100330.06;;;-1.05;53.85
10700;BME280;5401;41.986;21.452;2023-02-10T06:14:00;100323.09;;;-0.64;53.36
10700;BME280;5401;41.986;21.452;2023-02-10T06:16:27;100329.34;;;-0.13;53.39
10700;BME280;5401;41.986;21.452;2023-02-10T06:18:55;100328.97;;;0.32;52.99
10700;BME280;5401;41.986;21.452;2023-02-10T06:21:22;100330.00;;;0.68;52.24
10700;BME280;5401;41.986;21.452;2023-02-10T06:23:50;100329.91;;;0.94;51.67
10700;BME280;5401;41.986;21.452;2023-02-10T06:26:18;100338.03;;;1.28;51.87
10700;BME280;5401;41.986;21.452;2023-02-10T06:28:45;100336.78;;;1.69;51.07
10700;BME280;5401;41.986;21.452;2023-02-10T06:31:14;100338.44;;;2.05;50.79
10700;BME280;5401;41.986;21.452;2023-02-10T06:33:42;100341.34;;;2.36;50.71
10700;BME280;5401;41.986;21.452;2023-02-10T06:36:09;100343.72;;;2.62;49.58
10700;BME280;5401;41.986;21.452;2023-02-10T06:38:37;100335.66;;;2.87;49.54
10700;BME280;5401;41.986;21.452;2023-02-10T06:41:05;100346.03;;;3.22;49.09
10700;BME280;5401;41.986;21.452;2023-02-10T06:43:33;100353.13;;;3.54;48.51
10700;BME280;5401;41.986;21.452;2023-02-10T06:46:00;100344.69;;;3.82;47.92
10700;BME280;5401;41.986;21.452;2023-02-10T06:48:29;100354.13;;;4.17;48.13
10700;BME280;5401;41.986;21.452;2023-02-10T06:50:57;100346.16;;;4.59;47.23
10700;BME280;5401;41.986;21.452;2023-02-10T06:53:24;100350.88;;;4.96;46.60
10700;BME280;5401;41.986;21.452;2023-02-10T06:55:55;100354.44;;;5.26;46.43
10700;BME280;5401;41.986;21.452;2023-02-10T06:58:23;100347.91;;;5.60;46.46
10700;BME280;5401;41.986;21.452;2023-02-10T07:00:50;100346.34;;;5.87;45.88
10700;BME280;5401;41.986;21.452;2023-02-10T07:03:18;100341.19;;;5.95;44.85
10700;BME280;5401;41.986;21.452;2023-02-10T07:05:47;100340.81;;;6.08;45.23
10700;BME280;5401;41.986;21.452;2023-02-10T07:08:14;100342.25;;;6.31;45.13
10700;BME280;5401;41.986;21.452;2023-02-10T07:10:42;100351.25;;;6.49;44.92
10700;BME280;5401;41.986;21.452;2023-02-10T07:13:10;100349.13;;;6.52;44.52
10700;BME280;5401;41.986;21.452;2023-02-10T07:15:37;100350.97;;;6.42;44.98
10700;BME280;5401;41.986;21.452;2023-02-10T07:18:05;100339.31;;;6.34;44.65
10700;BME280;5401;41.986;21.452;2023-02-10T07:20:33;100345.88;;;6.21;45.28
10700;BME280;5401;41.986;21.452;2023-02-10T07:23:02;100338.72;;;6.12;45.81
10700;BME280;5401;41.986;21.452;2023-02-10T07:25:30;100360.56;;;6.15;45.82
10700;BME280;5401;41.986;21.452;2023-02-10T07:27:57;100352.16;;;6.10;46.24
10700;BME280;5401;41.986;21.452;2023-02-10T07:30:25;100349.75;;;6.07;46.24
10700;BME280;5401;41.986;21.452;2023-02-10T07:32:53;100347.47;;;5.94;46.38
10700;BME280;5401;41.986;21.452;2023-02-10T07:35:20;100350.41;;;5.91;46.55
10700;BME280;5401;41.986;21.452;2023-02-10T07:37:48;100347.34;;;5.86;46.80
10700;BME280;5401;41.986;21.452;2023-02-10T07:40:18;100349.28;;;5.84;46.82
10700;BME280;5401;41.986;21.452;2023-02-10T07:42:47;100346.50;;;5.65;46.97
10700;BME280;5401;41.986;21.452;2023-02-10T07:45:15;100349.38;;;5.43;47.28
10700;BME280;5401;41.986;21.452;2023-02-10T07:47:42;100338.63;;;5.25;47.88
10700;BME280;5401;41.986;21.452;2023-02-10T07:50:10;100339.03;;;5.20;47.90
10700;BME280;5401;41.986;21.452;2023-02-10T07:52:43;100342.47;;;5.32;47.46
10700;BME280;5401;41.986;21.452;2023-02-10T07:55:11;100342.31;;;5.33;47.78
10700;BME280;5401;41.986;21.452;2023-02-10T07:57:40;100346.97;;;5.40;47.86
10700;BME280;5401;41.986;21.452;2023-02-10T08:00:09;100336.34;;;5.40;47.61
10700;BME280;5401;41.986;21.452;2023-02-10T08:02:38;100348.91;;;5.68;47.66
10700;BME280;5401;41.986;21.452;2023-02-10T08:05:06;100352.75;;;5.75;47.75
10700;BME280;5401;41.986;21.452;2023-02-10T08:07:33;100342.81;;;5.77;47.40
10700;BME280;5401;41.986;21.452;2023-02-10T08:10:01;100350.00;;;5.86;47.47
10700;BME280;5401;41.986;21.452;2023-02-10T08:12:29;100351.66;;;5.87;47.47
10700;BME280;5401;41.986;21.452;2023-02-10T08:15:00;100336.78;;;5.75;47.64
10700;BME280;5401;41.986;21.452;2023-02-10T08:17:28;100354.16;;;5.79;47.40
10700;BME280;5401;41.986;21.452;2023-02-10T08:19:55;100349.84;;;5.58;47.24
10700;BME280;5401;41.986;21.452;2023-02-10T08:22:23;100341.59;;;5.31;47.69
10700;BME280;5401;41.986;21.452;2023-02-10T08:24:50;100345.31;;;5.19;47.99
10700;BME280;5401;41.986;21.452;2023-02-10T08:27:18;100353.00;;;5.22;47.58
10700;BME280;5401;41.986;21.452;2023-02-10T08:29:46;100360.75;;;5.25;47.42
10700;BME280;5401;41.986;21.452;2023-02-10T08:32:14;100353.44;;;5.27;48.20
10700;BME280;5401;41.986;21.452;2023-02-10T08:34:45;100350.66;;;5.29;47.79
10700;BME280;5401;41.986;21.452;2023-02-10T08:37:13;100344.22;;;5.22;47.72
10700;BME280;5401;41.986;21.452;2023-02-10T08:39:41;100347.81;;;5.21;48.01
10700;BME280;5401;41.986;21.452;2023-02-10T08:42:09;100344.53;;;5.28;47.44
10700;BME280;5401;41.986;21.452;2023-02-10T08:44:37;100343.88;;;5.35;48.15
10700;BME280;5401;41.986;21.452;2023-02-10T08:47:05;100338.59;;;5.45;47.54
10700;BME280;5401;41.986;21.452;2023-02-10T08:49:34;100347.84;;;5.50;47.52
10700;BME280;5401;41.986;21.452;2023-02-10T08:52:01;100348.50;;;5.43;47.63
10700;BME280;5401;41.986;21.452;2023-02-10T08:54:29;100354.75;;;5.62;47.00
10700;BME280;5401;41.986;21.452;2023-02-10T08:56:56;100347.59;;;5.83;47.26
10700;BME280;5401;41.986;21.452;2023-02-10T08:59:25;100344.97;;;5.92;46.89
10700;BME280;5401;41.986;21.452;2023-02-10T09:01:52;100339.91;;;5.80;47.15
10700;BME280;5401;41.986;21.452;2023-02-10T09:04:20;100342.91;;;5.66;46.93
10700;BME280;5401;41.986;21.452;2023-02-10T09:06:49;100317.28;;;5.65;46.95
10700;BME280;5401;41.986;21.452;2023-02-10T09:09:19;100342.31;;;5.92;46.97
10700;BME280;5401;41.986;21.452;2023-02-10T09:11:48;100337.13;;;5.91;46.92
10700;BME280;5401;41.986;21.452;2023-02-10T09:14:16;100333.66;;;5.90;46.90
10700;BME280;5401;41.986;21.452;2023-02-10T09:16:43;100337.16;;;6.09;46.76
10700;BME280;5401;41.986;21.452;2023-02-10T09:19:11;100335.69;;;6.35;46.82
10700;BME280;5401;41.986;21.452;2023-02-10T09:21:39;100330.50;;;6.62;46.46
10700;BME280;5401;41.986;21.452;2023-02-10T09:24:08;100327.56;;;6.83;46.46
10700;BME280;5401;41.986;21.452;2023-02-10T09:26:36;100328.22;;;7.04;46.17
10700;BME280;5401;41.986;21.452;2023-02-10T09:29:04;100330.59;;;7.16;45.57
10700;BME280;5401;41.986;21.452;2023-02-10T09:31:34;100329.34;;;7.02;46.05
10700;BME280;5401;41.986;21.452;2023-02-10T09:34:02;100328.00;;;6.79;45.96
10700;BME280;5401;41.986;21.452;2023-02-10T09:36:29;100330.78;;;6.68;46.04
10700;BME280;5401;41.986;21.452;2023-02-10T09:38:57;100304.47;;;6.56;45.58
10700;BME280;5401;41.986;21.452;2023-02-10T09:41:39;100315.25;;;6.73;45.53
10700;BME280;5401;41.986;21.452;2023-02-10T09:44:15;100308.09;;;6.74;45.83
10700;BME280;5401;41.986;21.452;2023-02-10T09:47:06;100311.31;;;6.68;45.69
10700;BME280;5401;41.986;21.452;2023-02-10T09:49:56;100308.41;;;6.71;45.63
10700;BME280;5401;41.986;21.452;2023-02-10T09:52:32;100290.44;;;6.82;45.39
10700;BME280;5401;41.986;21.452;2023-02-10T09:55:08;100306.09;;;7.13;45.30
10700;BME280;5401;41.986;21.452;2023-02-10T09:57:44;100289.22;;;7.12;45.58
10700;BME280;5401;41.986;21.452;2023-02-10T10:00:21;100299.41;;;6.72;45.19
10700;BME280;5401;41.986;21.452;2023-02-10T10:02:52;100287.22;;;6.69;45.39
10700;BME280;5401;41.986;21.452;2023-02-10T10:05:30;100285.47;;;7.06;45.69
10700;BME280;5401;41.986;21.452;2023-02-10T10:08:11;100255.56;;;7.21;45.03
10700;BME280;5401;41.986;21.452;2023-02-10T10:10:44;100267.78;;;7.14;44.95
10700;BME280;5401;41.986;21.452;2023-02-10T10:13:20;100266.16;;;7.40;44.54
10700;BME280;5401;41.986;21.452;2023-02-10T10:16:01;100251.94;;;7.22;44.72
10700;BME280;5401;41.986;21.452;2023-02-10T10:18:39;100263.03;;;7.17;44.73
10700;BME280;5401;41.986;21.452;2023-02-10T10:21:14;100251.69;;;7.06;44.47
10700;BME280;5401;41.986;21.452;2023-02-10T10:23:54;100250.34;;;7.29;44.51
10700;BME280;5401;41.986;21.452;2023-02-10T10:26:40;100254.13;;;7.36;44.46
10700;BME280;5401;41.986;21.452;2023-02-10T10:29:20;100249.97;;;7.50;44.11
10700;BME280;5401;41.986;21.452;2023-02-10T10:31:57;100244.59;;;7.60;43.94
10700;BME280;5401;41.986;21.452;2023-02-10T10:34:37;100235.41;;;7.72;44.21
10700;BME280;5401;41.986;21.452;2023-02-10T10:37:13;100243.34;;;7.81;43.66
10700;BME280;5401;41.986;21.452;2023-02-10T10:39:44;100241.94;;;7.60;43.18
10700;BME280;5401;41.986;21.452;2023-02-10T10:42:20;100245.56;;;7.32;43.83
10700;BME280;5401;41.986;21.452;2023-02-10T10:44:54;100237.25;;;7.45;43.56
10700;BME280;5401;41.986;21.452;2023-02-10T10:47:33;100210.69;;;7.52;44.16
10700;BME280;5401;41.986;21.452;2023-02-10T10:50:03;100221.78;;;7.75;44.11
10700;BME280;5401;41.986;21.452;2023-02-10T10:52:33;100209.16;;;7.50;43.66
10700;BME280;5401;41.986;21.452;2023-02-10T10:55:08;100205.84;;;7.39;43.72
10700;BME280;5401;41.986;21.452;2023-02-10T10:57:39;100204.13;;;7.47;43.79
10700;BME280;5401;41.986;21.452;2023-02-10T11:00:17;100186.16;;;7.49;43.61
10700;BME280;5401;41.986;21.452;2023-02-10T11:02:58;100178.03;;;7.50;42.79
10700;BME280;5401;41.986;21.452;2023-02-10T11:05:29;100184.19;;;7.51;43.28
10700;BME280;5401;41.986;21.452;2023-02-10T11:07:57;100191.81;;;7.63;42.54
10700;BME280;5401;41.986;21.452;2023-02-10T11:10:29;100169.25;;;7.41;42.87
10700;BME280;5401;41.986;21.452;2023-02-10T11:12:59;100173.88;;;7.39;42.55
10700;BME280;5401;41.986;21.452;2023-02-10T11:15:34;100164.75;;;7.41;42.32
10700;BME280;5401;41.986;21.452;2023-02-10T11:18:06;100181.00;;;7.65;42.91
10700;BME280;5401;41.986;21.452;2023-02-10T11:20:35;100158.63;;;7.58;42.57
10700;BME280;5401;41.986;21.452;2023-02-10T11:23:12;100174.84;;;7.64;42.59
10700;BME280;5401;41.986;21.452;2023-02-10T11:25:40;100165.78;;;7.31;42.83
10700;BME280;5401;41.986;21.452;2023-02-10T11:28:17;100162.06;;;6.88;42.82
10700;BME280;5401;41.986;21.452;2023-02-10T11:30:53;100148.41;;;7.00;42.52
10700;BME280;5401;41.986;21.452;2023-02-10T11:33:24;100147.00;;;7.32;42.31
10700;BME280;5401;41.986;21.452;2023-02-10T11:35:57;100122.75;;;7.52;42.54
10700;BME280;5401;41.986;21.452;2023-02-10T11:38:27;100128.31;;;7.76;42.20
10700;BME280;5401;41.986;21.452;2023-02-10T11:40:56;100117.56;;;8.03;42.26
10700;BME280;5401;41.986;21.452;2023-02-10T11:43:30;100120.19;;;8.37;41.41
10700;BME280;5401;41.986;21.452;2023-02-10T11:46:03;100103.59;;;8.26;41.86
10700;BME280;5401;41.986;21.452;2023-02-10T11:48:31;100073.44;;;8.08;41.74
10700;BME280;5401;41.986;21.452;2023-02-10T11:51:12;100113.81;;;8.30;41.99
10700;BME280;5401;41.986;21.452;2023-02-10T11:53:41;100082.16;;;8.35;41.72
10700;BME280;5401;41.986;21.452;2023-02-10T11:56:16;100092.16;;;8.58;40.92
10700;BME280;5401;41.986;21.452;2023-02-10T11:58:59;100106.38;;;8.67;41.53
10700;BME280;5401;41.986;21.452;2023-02-10T12:01:44;100099.38;;;8.41;40.83
10700;BME280;5401;41.986;21.452;2023-02-10T12:04:30;100113.06;;;8.20;40.64
10700;BME280;5401;41.986;21.452;2023-02-10T12:07:07;100103.47;;;7.93;41.50
10700;BME280;5401;41.986;21.452;2023-02-10T12:09:44;100105.69;;;7.63;41.93
10700;BME280;5401;41.986;21.452;2023-02-10T12:12:21;100102.44;;;7.51;41.99
10700;BME280;5401;41.986;21.452;2023-02-10T12:14:58;100070.66;;;7.58;41.56
10700;BME280;5401;41.986;21.452;2023-02-10T12:17:33;100090.38;;;7.82;41.47
10700;BME280;5401;41.986;21.452;2023-02-10T12:20:20;100089.19;;;8.02;41.31
10700;BME280;5401;41.986;21.452;2023-02-10T12:23:13;100085.72;;;8.01;41.62
10700;BME280;5401;41.986;21.452;2023-02-10T12:25:48;100076.25;;;8.07;41.18
10700;BME280;5401;41.986;21.452;2023-02-10T12:28:26;100074.03;;;8.19;41.04
10700;BME280;5401;41.986;21.452;2023-02-10T12:31:13;100075.47;;;8.31;40.46
10700;BME280;5401;41.986;21.452;2023-02-10T12:33:50;100074.44;;;8.24;40.32
10700;BME280;5401;41.986;21.452;2023-02-10T12:36:29;100068.88;;;8.01;40.38
10700;BME280;5401;41.986;21.452;2023-02-10T12:39:08;100051.19;;;8.00;41.51
10700;BME280;5401;41.986;21.452;2023-02-10T12:41:46;100052.88;;;8.18;40.36
10700;BME280;5401;41.986;21.452;2023-02-10T12:44:26;100040.91;;;8.30;40.06
10700;BME280;5401;41.986;21.452;2023-02-10T12:47:04;100053.94;;;8.58;40.86
10700;BME280;5401;41.986;21.452;2023-02-10T12:49:47;100036.41;;;8.55;41.17
10700;BME280;5401;41.986;21.452;2023-02-10T12:52:21;100054.66;;;8.68;40.77
10700;BME280;5401;41.986;21.452;2023-02-10T12:54:55;100049.13;;;8.61;40.61
10700;BME280;5401;41.986;21.452;2023-02-10T12:57:29;100046.16;;;8.39;40.43
10700;BME280;5401;41.986;21.452;2023-02-10T13:00:03;100052.53;;;8.21;40.36
10700;BME280;5401;41.986;21.452;2023-02-10T13:02:39;100048.91;;;8.30;39.82
10700;BME280;5401;41.986;21.452;2023-02-10T13:05:14;100047.84;;;8.40;40.79
10700;BME280;5401;41.986;21.452;2023-02-10T13:07:45;100046.88;;;8.49;40.65
10700;BME280;5401;41.986;21.452;2023-02-10T13:10:26;100039.59;;;8.59;39.65
10700;BME280;5401;41.986;21.452;2023-02-10T13:12:59;100054.16;;;8.72;40.31
10700;BME280;5401;41.986;21.452;2023-02-10T13:15:30;100051.72;;;8.79;39.94
10700;BME280;5401;41.986;21.452;2023-02-10T13:18:01;100038.47;;;8.69;39.87
10700;BME280;5401;41.986;21.452;2023-02-10T13:20:40;100046.84;;;8.74;39.79